createdAt,value
2018-03-25T00:01:30.436Z,15.70
2018-03-25T00:03:58.207Z,15.70
2018-03-25T00:06:25.942Z,15.70
2018-03-25T00:08:53.686Z,15.70
2018-03-25T00:11:22.206Z,15.60
2018-03-25T00:13:49.946Z,15.60
2018-03-25T00:16:18.461Z,15.60
2018-03-25T00:18:46.217Z,15.70
2018-03-25T00:21:13.959Z,15.70
2018-03-25T00:23:41.712Z,15.60
2018-03-25T00:26:10.256Z,15.60
2018-03-25T00:28:38.003Z,15.60
2018-03-25T00:31:05.770Z,15.60
2018-03-25T00:33:33.527Z,15.60
2018-03-25T00:36:01.262Z,15.60
2018-03-25T00:38:29.055Z,15.60
2018-03-25T00:40:56.800Z,15.60
2018-03-25T00:43:24.552Z,15.60
2018-03-25T00:45:52.312Z,15.60
2018-03-25T00:48:20.823Z,15.50
2018-03-25T00:50:48.580Z,15.50
2018-03-25T00:55:51.706Z,15.50
2018-03-25T00:58:19.496Z,15.50
2018-03-25T01:00:47.278Z,15.50
2018-03-25T01:03:15.818Z,15.50
2018-03-25T01:05:43.550Z,15.50
2018-03-25T01:08:11.260Z,15.40
2018-03-25T01:10:38.981Z,15.40
2018-03-25T01:13:06.774Z,15.40
2018-03-25T01:15:46.351Z,15.40
2018-03-25T01:18:14.842Z,15.40
2018-03-25T01:20:43.345Z,15.30
2018-03-25T01:23:11.053Z,15.30
2018-03-25T01:25:38.779Z,15.30
2018-03-25T01:28:06.500Z,15.30
2018-03-25T01:30:34.242Z,15.20
2018-03-25T01:33:01.957Z,15.20
2018-03-25T01:35:29.674Z,15.20
2018-03-25T01:37:57.400Z,15.20
2018-03-25T01:40:25.130Z,15.20
2018-03-25T01:42:53.590Z,15.20
2018-03-25T01:45:21.304Z,15.20
2018-03-25T01:47:49.005Z,15.20
2018-03-25T01:50:16.714Z,15.20
2018-03-25T01:52:44.439Z,15.30
2018-03-25T01:55:12.158Z,15.20
2018-03-25T01:57:39.871Z,15.30
2018-03-25T02:00:07.630Z,15.30
2018-03-25T02:02:35.399Z,15.30
2018-03-25T02:05:03.167Z,15.30
2018-03-25T02:07:31.645Z,15.30
2018-03-25T02:09:59.353Z,15.20
2018-03-25T02:12:27.067Z,15.20
2018-03-25T02:14:54.786Z,15.20
2018-03-25T02:17:22.496Z,15.20
2018-03-25T02:19:50.978Z,15.30
2018-03-25T02:22:19.454Z,15.30
2018-03-25T02:24:47.162Z,15.30
2018-03-25T02:27:14.922Z,15.30
2018-03-25T02:29:43.393Z,15.30
2018-03-25T02:32:11.162Z,15.20
2018-03-25T02:34:38.878Z,15.20
2018-03-25T02:37:06.601Z,15.20
2018-03-25T02:39:34.331Z,15.30
2018-03-25T03:05:39.401Z,15.20
2018-03-25T03:08:29.688Z,15.20
2018-03-25T03:11:25.288Z,15.10
2018-03-25T03:22:44.799Z,15.20
2018-03-25T03:31:08.505Z,15.20
2018-03-25T03:56:46.505Z,15.20
2018-03-25T03:59:24.647Z,15.20
2018-03-25T04:02:09.584Z,15.20
2018-03-25T04:10:57.381Z,15.20
2018-03-25T04:13:44.943Z,15.20
2018-03-25T04:28:05.005Z,15.10
2018-03-25T04:33:40.917Z,15.00
2018-03-25T04:42:03.869Z,14.90
2018-03-25T04:44:45.453Z,14.90
2018-03-25T04:47:26.885Z,14.90
2018-03-25T04:50:15.605Z,14.90
2018-03-25T04:52:56.275Z,14.90
2018-03-25T05:09:24.167Z,14.80
2018-03-25T05:12:06.221Z,14.80
2018-03-25T05:20:19.904Z,14.70
2018-03-25T05:22:49.926Z,14.70
2018-03-25T05:28:09.199Z,14.60
2018-03-25T05:33:44.742Z,14.60
2018-03-25T05:36:18.940Z,14.60
2018-03-25T05:38:53.586Z,14.70
2018-03-25T05:41:41.343Z,14.70
2018-03-25T05:44:26.428Z,14.60
2018-03-25T05:47:20.442Z,14.60
2018-03-25T05:49:57.058Z,14.60
2018-03-25T05:55:12.104Z,14.60
2018-03-25T05:57:39.903Z,14.60
2018-03-25T06:00:07.708Z,14.60
2018-03-25T06:02:35.456Z,14.60
2018-03-25T06:05:03.203Z,14.60
2018-03-25T06:07:31.833Z,14.50
2018-03-25T06:09:59.570Z,14.50
2018-03-25T06:12:31.166Z,14.50
2018-03-25T06:15:11.344Z,14.40
2018-03-25T06:17:44.443Z,14.40
2018-03-25T06:20:13.646Z,14.40
2018-03-25T06:22:46.139Z,14.40
2018-03-25T06:25:23.536Z,14.40
2018-03-25T06:30:38.378Z,14.40
2018-03-25T06:35:55.204Z,14.40
2018-03-25T06:38:31.813Z,14.40
2018-03-25T06:41:10.330Z,14.40
2018-03-25T06:46:42.409Z,14.40
2018-03-25T06:51:55.987Z,14.50
2018-03-25T06:54:23.819Z,14.60
2018-03-25T06:56:51.534Z,14.60
2018-03-25T06:59:19.386Z,14.70
2018-03-25T07:01:47.122Z,14.70
2018-03-25T07:04:15.612Z,14.80
2018-03-25T07:06:44.098Z,14.80
2018-03-25T07:09:12.577Z,14.80
2018-03-25T07:11:41.075Z,14.80
2018-03-25T07:14:08.823Z,14.80
2018-03-25T07:16:37.326Z,14.90
2018-03-25T07:19:05.054Z,14.90
2018-03-25T07:21:33.546Z,14.90
2018-03-25T07:24:01.339Z,14.90
2018-03-25T07:26:29.065Z,14.90
2018-03-25T07:28:57.549Z,15.00
2018-03-25T07:31:26.039Z,15.00
2018-03-25T07:33:54.529Z,15.00
2018-03-25T07:36:22.265Z,15.00
2018-03-25T07:38:50.762Z,15.00
2018-03-25T07:41:19.254Z,15.10
2018-03-25T07:43:47.006Z,15.10
2018-03-25T07:46:15.503Z,15.10
2018-03-25T07:48:43.226Z,15.10
2018-03-25T07:51:10.998Z,15.10
2018-03-25T07:53:39.491Z,15.20
2018-03-25T07:56:07.989Z,15.20
2018-03-25T07:58:35.726Z,15.20
2018-03-25T08:01:04.226Z,15.20
2018-03-25T08:03:31.961Z,15.20
2018-03-25T08:05:59.681Z,15.30
2018-03-25T08:08:27.403Z,15.30
2018-03-25T08:10:55.898Z,15.30
2018-03-25T08:13:23.626Z,15.30
2018-03-25T08:15:51.348Z,15.30
2018-03-25T08:18:19.074Z,15.40
2018-03-25T08:20:49.232Z,15.40
2018-03-25T08:23:16.967Z,15.40
2018-03-25T08:25:44.701Z,15.40
2018-03-25T08:28:12.651Z,15.40
2018-03-25T08:30:40.479Z,15.30
2018-03-25T08:33:08.270Z,15.30
2018-03-25T08:35:36.014Z,15.30
2018-03-25T08:38:03.766Z,15.30
2018-03-25T08:40:31.605Z,15.30
2018-03-25T08:42:59.363Z,15.30
2018-03-25T08:45:27.153Z,15.40
2018-03-25T08:47:55.660Z,15.40
2018-03-25T08:50:23.398Z,15.40
2018-03-25T08:52:51.142Z,15.40
2018-03-25T08:55:19.639Z,15.40
2018-03-25T08:57:47.395Z,15.40
2018-03-25T09:00:15.970Z,15.50
2018-03-25T09:02:44.493Z,15.60
2018-03-25T09:05:12.335Z,15.50
2018-03-25T09:07:40.099Z,15.60
2018-03-25T09:10:07.848Z,15.60
2018-03-25T09:12:36.439Z,15.60
2018-03-25T09:15:04.660Z,15.60
2018-03-25T09:17:32.435Z,15.70
2018-03-25T09:20:00.182Z,15.70
2018-03-25T09:22:27.890Z,15.70
2018-03-25T09:24:56.461Z,15.80
2018-03-25T09:27:28.742Z,15.80
2018-03-25T09:29:57.469Z,15.80
2018-03-25T09:32:25.199Z,15.80
2018-03-25T09:34:53.704Z,15.80
2018-03-25T09:37:21.484Z,15.80
2018-03-25T09:39:49.238Z,15.90
2018-03-25T09:42:17.023Z,15.90
2018-03-25T09:44:44.934Z,16.00
2018-03-25T09:47:13.561Z,16.20
2018-03-25T09:49:41.347Z,16.20
2018-03-25T09:52:09.092Z,16.30
2018-03-25T09:54:36.869Z,16.40
2018-03-25T09:57:04.667Z,16.50
2018-03-25T09:59:33.214Z,16.80
2018-03-25T10:02:04.869Z,16.80
2018-03-25T10:04:32.586Z,16.90
2018-03-25T10:07:00.327Z,17.10
2018-03-25T10:09:28.066Z,17.20
2018-03-25T10:11:56.627Z,17.40
2018-03-25T10:14:26.231Z,17.40
2018-03-25T10:16:54.023Z,17.50
2018-03-25T10:19:21.784Z,17.60
2018-03-25T10:24:26.979Z,17.80
2018-03-25T10:26:54.949Z,17.80
2018-03-25T10:29:23.527Z,17.90
2018-03-25T10:31:52.017Z,17.80
2018-03-25T10:34:19.760Z,17.80
2018-03-25T10:36:47.483Z,17.90
2018-03-25T10:39:15.246Z,17.90
2018-03-25T10:41:42.989Z,17.90
2018-03-25T10:44:10.730Z,18.00
2018-03-25T10:46:38.481Z,18.00
2018-03-25T10:49:06.989Z,18.10
2018-03-25T10:51:34.718Z,18.00
2018-03-25T10:54:03.763Z,18.10
2018-03-25T10:56:32.281Z,18.20
2018-03-25T10:59:00.001Z,18.20
2018-03-25T11:01:27.726Z,18.40
2018-03-25T11:03:56.215Z,18.50
2018-03-25T11:06:24.698Z,18.50
2018-03-25T11:08:53.189Z,18.50
2018-03-25T11:11:21.666Z,18.50
2018-03-25T11:13:50.146Z,18.40
2018-03-25T11:16:19.594Z,18.40
2018-03-25T11:18:47.351Z,18.30
2018-03-25T11:21:15.103Z,18.40
2018-03-25T11:23:42.906Z,18.40
2018-03-25T11:26:10.630Z,18.40
2018-03-25T11:28:38.380Z,18.30
2018-03-25T11:31:06.262Z,18.30
2018-03-25T11:33:34.118Z,18.30
2018-03-25T11:36:01.885Z,18.20
2018-03-25T11:38:29.614Z,18.20
2018-03-25T11:40:58.113Z,18.20
2018-03-25T11:43:25.835Z,18.20
2018-03-25T11:45:53.562Z,18.20
2018-03-25T11:48:21.289Z,18.20
2018-03-25T11:50:49.785Z,18.20
2018-03-25T11:53:17.575Z,18.20
2018-03-25T11:55:45.307Z,18.10
2018-03-25T11:58:13.789Z,17.90
2018-03-25T12:00:41.538Z,17.90
2018-03-25T12:03:10.062Z,17.70
2018-03-25T12:05:37.798Z,17.70
2018-03-25T12:08:06.298Z,17.60
2018-03-25T12:10:34.040Z,17.50
2018-03-25T12:13:02.641Z,17.50
2018-03-25T12:15:30.378Z,17.50
2018-03-25T12:17:58.898Z,17.40
2018-03-25T12:20:26.652Z,17.40
2018-03-25T12:22:54.383Z,17.50
2018-03-25T12:25:22.891Z,17.50
2018-03-25T12:27:50.646Z,17.50
2018-03-25T12:30:18.376Z,17.60
2018-03-25T12:32:46.131Z,17.70
2018-03-25T12:35:13.865Z,17.70
2018-03-25T12:37:41.611Z,17.80
2018-03-25T12:40:09.429Z,17.60
2018-03-25T12:42:37.164Z,17.60
2018-03-25T12:45:04.913Z,17.50
2018-03-25T12:47:32.687Z,17.50
2018-03-25T12:50:00.433Z,17.50
2018-03-25T12:52:28.177Z,17.50
2018-03-25T12:54:55.965Z,17.30
2018-03-25T12:57:24.670Z,17.10
2018-03-25T12:59:52.399Z,16.90
2018-03-25T13:02:20.172Z,16.90
2018-03-25T13:04:47.925Z,16.90
2018-03-25T13:07:15.654Z,16.90
2018-03-25T13:09:43.413Z,16.90
2018-03-25T13:12:11.145Z,16.80
2018-03-25T13:48:18.761Z,16.10
2018-03-25T13:50:51.261Z,16.00
2018-03-25T13:56:03.985Z,16.10
2018-03-25T14:01:46.313Z,16.10
2018-03-25T14:04:37.067Z,16.10
2018-03-25T14:12:55.546Z,15.90
2018-03-25T14:15:56.887Z,16.00
2018-03-25T14:25:11.147Z,16.10
2018-03-25T14:32:18.908Z,16.00
2018-03-25T14:34:47.394Z,16.00
2018-03-25T14:37:16.823Z,16.00
2018-03-25T14:39:44.681Z,16.00
2018-03-25T14:42:13.321Z,16.10
2018-03-25T14:44:41.220Z,16.20
2018-03-25T14:47:10.745Z,16.30
2018-03-25T14:49:38.664Z,16.40
2018-03-25T14:52:07.255Z,16.40
2018-03-25T14:54:38.198Z,16.30
2018-03-25T14:57:06.317Z,16.30
2018-03-25T15:06:28.516Z,16.00
2018-03-25T15:17:59.119Z,15.20
2018-03-25T15:23:22.275Z,15.10
2018-03-25T15:25:50.050Z,15.10
2018-03-25T15:28:17.843Z,15.10
2018-03-25T15:30:46.345Z,15.10
2018-03-25T15:33:14.237Z,15.10
2018-03-25T15:35:41.974Z,15.00
2018-03-25T15:38:09.873Z,15.00
2018-03-25T15:40:37.630Z,15.10
2018-03-25T15:43:05.403Z,15.10
2018-03-25T15:45:33.248Z,15.10
2018-03-25T15:48:00.974Z,15.10
2018-03-25T15:50:43.066Z,14.90
2018-03-25T15:56:24.596Z,14.90
2018-03-25T15:59:05.954Z,15.00
2018-03-25T16:01:55.501Z,15.20
2018-03-25T16:11:05.500Z,15.30
2018-03-25T16:23:29.326Z,15.50
2018-03-25T16:32:59.892Z,15.50
2018-03-25T16:43:00.254Z,15.50
2018-03-25T16:49:27.286Z,15.60
2018-03-25T16:52:48.470Z,15.70
2018-03-25T17:18:57.970Z,15.60
2018-03-25T17:24:49.962Z,15.40
2018-03-25T17:27:28.938Z,15.40
2018-03-25T17:47:27.606Z,15.30
2018-03-25T18:21:54.866Z,15.20
2018-03-25T18:30:46.694Z,15.10
2018-03-25T18:48:36.470Z,15.10
2018-03-25T18:59:59.611Z,15.20
2018-03-25T19:27:18.997Z,15.10
2018-03-25T19:29:46.971Z,15.20
2018-03-25T19:36:10.975Z,15.20
2018-03-25T20:00:47.409Z,15.10
2018-03-25T20:19:32.744Z,15.00
2018-03-25T20:31:38.694Z,15.20
2018-03-25T20:40:51.305Z,15.10
2018-03-25T21:00:52.161Z,15.20
2018-03-25T21:11:46.813Z,15.20
2018-03-25T21:22:46.984Z,15.30
2018-03-25T21:28:09.449Z,15.30
2018-03-25T21:36:29.565Z,15.30
2018-03-25T21:39:02.148Z,15.30
2018-03-25T21:41:36.572Z,15.30
2018-03-25T21:47:05.376Z,15.30
2018-03-25T21:55:53.897Z,15.20
2018-03-25T21:58:44.160Z,15.20
2018-03-25T22:16:07.467Z,15.10
2018-03-25T22:19:00.466Z,15.00
2018-03-25T22:24:18.224Z,15.00
2018-03-25T22:29:43.502Z,15.00
2018-03-25T22:43:51.398Z,14.90
2018-03-25T22:52:04.987Z,14.90
2018-03-25T22:54:54.253Z,14.80
2018-03-25T22:57:36.742Z,14.90
2018-03-25T23:03:21.737Z,14.80
2018-03-25T23:06:14.295Z,14.90
2018-03-25T23:09:05.376Z,14.90
2018-03-25T23:11:48.536Z,14.80
2018-03-25T23:14:23.626Z,14.90
2018-03-25T23:17:03.033Z,14.90
2018-03-25T23:19:42.266Z,14.90
2018-03-25T23:22:36.115Z,14.90
2018-03-25T23:25:26.299Z,14.90
2018-03-25T23:39:50.972Z,14.90
2018-03-25T23:45:20.702Z,14.90
2018-03-25T23:48:13.094Z,14.90
2018-03-25T23:50:49.166Z,14.90
2018-03-25T23:53:39.418Z,14.90
2018-03-25T23:56:14.973Z,14.90
